sensor_id;sensor_type;location;lat;lon;timestamp;temperature;humidity
30308;DHT22;17114;52.314;8.910;2023-08-30T00:01:14;12.30;99.90
30308;DHT22;17114;52.314;8.910;2023-08-30T00:03:41;12.30;99.90
30308;DHT22;17114;52.314;8.910;2023-08-30T00:06:07;12.30;99.90
30308;DHT22;17114;52.314;8.910;2023-08-30T00:08:35;12.30;99.90
30308;DHT22;17114;52.314;8.910;2023-08-30T00:11:02;12.30;99.90
30308;DHT22;17114;52.314;8.910;2023-08-30T00:13:32;12.30;99.90
30308;DHT22;17114;52.314;8.910;2023-08-30T00:16:00;12.30;99.90
30308;DHT22;17114;52.314;8.910;2023-08-30T00:18:29;12.20;99.90
30308;DHT22;17114;52.314;8.910;2023-08-30T00:20:56;12.30;99.90
30308;DHT22;17114;52.314;8.910;2023-08-30T00:23:24;12.30;99.90
30308;DHT22;17114;52.314;8.910;2023-08-30T00:25:51;12.30;99.90
30308;DHT22;17114;52.314;8.910;2023-08-30T00:28:17;12.40;99.90
30308;DHT22;17114;52.314;8.910;2023-08-30T00:30:44;12.40;99.90
30308;DHT22;17114;52.314;8.910;2023-08-30T00:33:11;12.40;99.90
30308;DHT22;17114;52.314;8.910;2023-08-30T00:35:38;12.30;99.90
30308;DHT22;17114;52.314;8.910;2023-08-30T00:38:04;12.60;99.90
30308;DHT22;17114;52.314;8.910;2023-08-30T00:40:40;12.70;99.90
30308;DHT22;17114;52.314;8.910;2023-08-30T00:43:08;12.80;99.90
30308;DHT22;17114;52.314;8.910;2023-08-30T00:45:35;12.90;99.90
30308;DHT22;17114;52.314;8.910;2023-08-30T00:48:05;12.90;99.90
30308;DHT22;17114;52.314;8.910;2023-08-30T00:50:34;13.00;99.90
30308;DHT22;17114;52.314;8.910;2023-08-30T00:53:01;13.10;99.90
30308;DHT22;17114;52.314;8.910;2023-08-30T00:55:35;13.10;99.90
30308;DHT22;17114;52.314;8.910;2023-08-30T00:58:02;13.20;99.90
30308;DHT22;17114;52.314;8.910;2023-08-30T01:00:30;13.20;99.90
30308;DHT22;17114;52.314;8.910;2023-08-30T01:02:58;13.20;99.90
30308;DHT22;17114;52.314;8.910;2023-08-30T01:05:25;13.30;99.90
30308;DHT22;17114;52.314;8.910;2023-08-30T01:07:52;13.30;99.90
30308;DHT22;17114;52.314;8.910;2023-08-30T01:10:24;13.40;99.90
30308;DHT22;17114;52.314;8.910;2023-08-30T01:12:56;13.40;99.90
30308;DHT22;17114;52.314;8.910;2023-08-30T01:15:25;13.50;99.90
30308;DHT22;17114;52.314;8.910;2023-08-30T01:17:52;13.50;99.90
30308;DHT22;17114;52.314;8.910;2023-08-30T01:20:21;13.40;99.90
30308;DHT22;17114;52.314;8.910;2023-08-30T01:22:57;13.40;99.90
30308;DHT22;17114;52.314;8.910;2023-08-30T01:25:53;13.30;99.90
30308;DHT22;17114;52.314;8.910;2023-08-30T01:28:22;13.40;99.90
30308;DHT22;17114;52.314;8.910;2023-08-30T01:30:51;13.30;99.90
30308;DHT22;17114;52.314;8.910;2023-08-30T01:33:21;13.30;99.90
30308;DHT22;17114;52.314;8.910;2023-08-30T01:35:49;13.30;99.90
30308;DHT22;17114;52.314;8.910;2023-08-30T01:38:17;13.40;99.90
30308;DHT22;17114;52.314;8.910;2023-08-30T01:40:44;13.40;99.90
30308;DHT22;17114;52.314;8.910;2023-08-30T01:43:13;13.40;99.90
30308;DHT22;17114;52.314;8.910;2023-08-30T01:45:42;13.40;99.90
30308;DHT22;17114;52.314;8.910;2023-08-30T01:48:15;13.50;99.90
30308;DHT22;17114;52.314;8.910;2023-08-30T01:50:43;13.50;99.90
30308;DHT22;17114;52.314;8.910;2023-08-30T01:53:12;13.50;99.90
30308;DHT22;17114;52.314;8.910;2023-08-30T01:55:39;13.50;99.90
30308;DHT22;17114;52.314;8.910;2023-08-30T01:58:07;13.60;99.90
30308;DHT22;17114;52.314;8.910;2023-08-30T02:00:35;13.60;99.90
30308;DHT22;17114;52.314;8.910;2023-08-30T02:03:13;13.60;99.90
30308;DHT22;17114;52.314;8.910;2023-08-30T02:08:17;13.70;99.90
30308;DHT22;17114;52.314;8.910;2023-08-30T02:10:56;13.70;99.90
30308;DHT22;17114;52.314;8.910;2023-08-30T02:13:28;13.70;99.90
30308;DHT22;17114;52.314;8.910;2023-08-30T02:15:56;13.70;99.90
30308;DHT22;17114;52.314;8.910;2023-08-30T02:18:26;13.80;99.90
30308;DHT22;17114;52.314;8.910;2023-08-30T02:20:53;13.80;99.90
30308;DHT22;17114;52.314;8.910;2023-08-30T02:23:25;13.80;99.90
30308;DHT22;17114;52.314;8.910;2023-08-30T02:25:54;13.90;99.90
30308;DHT22;17114;52.314;8.910;2023-08-30T02:28:21;13.80;99.90
30308;DHT22;17114;52.314;8.910;2023-08-30T02:30:52;13.90;99.90
30308;DHT22;17114;52.314;8.910;2023-08-30T02:33:19;13.90;99.90
30308;DHT22;17114;52.314;8.910;2023-08-30T02:35:46;13.90;99.90
30308;DHT22;17114;52.314;8.910;2023-08-30T02:38:13;13.90;99.90
30308;DHT22;17114;52.314;8.910;2023-08-30T02:40:40;13.90;99.90
30308;DHT22;17114;52.314;8.910;2023-08-30T02:43:07;13.90;99.90
30308;DHT22;17114;52.314;8.910;2023-08-30T02:45:34;13.90;99.90
30308;DHT22;17114;52.314;8.910;2023-08-30T02:48:01;13.80;99.90
30308;DHT22;17114;52.314;8.910;2023-08-30T02:50:28;13.90;99.90
30308;DHT22;17114;52.314;8.910;2023-08-30T02:52:55;13.90;99.90
30308;DHT22;17114;52.314;8.910;2023-08-30T02:55:22;13.90;99.90
30308;DHT22;17114;52.314;8.910;2023-08-30T02:57:48;13.90;99.90
30308;DHT22;17114;52.314;8.910;2023-08-30T03:00:16;13.90;99.90
30308;DHT22;17114;52.314;8.910;2023-08-30T03:02:43;13.90;99.90
30308;DHT22;17114;52.314;8.910;2023-08-30T03:05:10;13.80;99.90
30308;DHT22;17114;52.314;8.910;2023-08-30T03:07:38;13.80;99.90
30308;DHT22;17114;52.314;8.910;2023-08-30T03:10:06;13.80;99.90
30308;DHT22;17114;52.314;8.910;2023-08-30T03:12:33;13.80;99.90
30308;DHT22;17114;52.314;8.910;2023-08-30T03:15:00;13.70;99.90
30308;DHT22;17114;52.314;8.910;2023-08-30T03:17:27;13.70;99.90
30308;DHT22;17114;52.314;8.910;2023-08-30T03:19:57;13.50;99.90
30308;DHT22;17114;52.314;8.910;2023-08-30T03:22:24;13.50;99.90
30308;DHT22;17114;52.314;8.910;2023-08-30T03:24:55;13.50;99.90
30308;DHT22;17114;52.314;8.910;2023-08-30T03:27:21;13.50;99.90
30308;DHT22;17114;52.314;8.910;2023-08-30T03:29:48;13.40;99.90
30308;DHT22;17114;52.314;8.910;2023-08-30T03:32:17;13.40;99.90
30308;DHT22;17114;52.314;8.910;2023-08-30T03:34:45;13.30;99.90
30308;DHT22;17114;52.314;8.910;2023-08-30T03:37:14;13.20;99.90
30308;DHT22;17114;52.314;8.910;2023-08-30T03:39:41;13.10;99.90
30308;DHT22;17114;52.314;8.910;2023-08-30T03:42:08;13.20;99.90
30308;DHT22;17114;52.314;8.910;2023-08-30T03:44:35;13.20;99.90
30308;DHT22;17114;52.314;8.910;2023-08-30T03:47:04;13.20;99.90
30308;DHT22;17114;52.314;8.910;2023-08-30T03:49:31;13.10;99.90
30308;DHT22;17114;52.314;8.910;2023-08-30T03:51:58;13.10;99.90
30308;DHT22;17114;52.314;8.910;2023-08-30T03:54:25;13.20;99.90
30308;DHT22;17114;52.314;8.910;2023-08-30T03:56:52;13.20;99.90
30308;DHT22;17114;52.314;8.910;2023-08-30T03:59:19;13.20;99.90
30308;DHT22;17114;52.314;8.910;2023-08-30T04:01:46;13.30;99.90
30308;DHT22;17114;52.314;8.910;2023-08-30T04:04:13;13.20;99.90
30308;DHT22;17114;52.314;8.910;2023-08-30T04:06:41;13.30;99.90
30308;DHT22;17114;52.314;8.910;2023-08-30T04:09:08;13.40;99.90
30308;DHT22;17114;52.314;8.910;2023-08-30T04:11:35;13.40;99.90
30308;DHT22;17114;52.314;8.910;2023-08-30T04:14:02;13.40;99.90
30308;DHT22;17114;52.314;8.910;2023-08-30T04:16:29;13.40;99.90
30308;DHT22;17114;52.314;8.910;2023-08-30T04:18:56;13.40;99.90
30308;DHT22;17114;52.314;8.910;2023-08-30T04:21:24;13.40;99.90
30308;DHT22;17114;52.314;8.910;2023-08-30T04:23:50;13.40;99.90
30308;DHT22;17114;52.314;8.910;2023-08-30T04:26:17;13.40;99.90
30308;DHT22;17114;52.314;8.910;2023-08-30T04:28:44;13.40;99.90
30308;DHT22;17114;52.314;8.910;2023-08-30T04:31:11;13.40;99.90
30308;DHT22;17114;52.314;8.910;2023-08-30T04:33:39;13.30;99.90
30308;DHT22;17114;52.314;8.910;2023-08-30T04:36:05;13.20;99.90
30308;DHT22;17114;52.314;8.910;2023-08-30T04:38:32;13.20;99.90
30308;DHT22;17114;52.314;8.910;2023-08-30T04:41:05;13.20;99.90
30308;DHT22;17114;52.314;8.910;2023-08-30T04:43:32;13.20;99.90
30308;DHT22;17114;52.314;8.910;2023-08-30T04:45:58;13.20;99.90
30308;DHT22;17114;52.314;8.910;2023-08-30T04:48:25;13.20;99.90
30308;DHT22;17114;52.314;8.910;2023-08-30T04:51:02;13.10;99.90
30308;DHT22;17114;52.314;8.910;2023-08-30T04:53:30;13.30;99.90
30308;DHT22;17114;52.314;8.910;2023-08-30T04:55:57;13.30;99.90
30308;DHT22;17114;52.314;8.910;2023-08-30T04:58:24;13.30;99.90
30308;DHT22;17114;52.314;8.910;2023-08-30T05:00:50;13.30;99.90
30308;DHT22;17114;52.314;8.910;2023-08-30T05:03:17;13.40;99.90
30308;DHT22;17114;52.314;8.910;2023-08-30T05:05:45;13.40;99.90
30308;DHT22;17114;52.314;8.910;2023-08-30T05:08:12;13.40;99.90
30308;DHT22;17114;52.314;8.910;2023-08-30T05:10:39;13.50;99.90
30308;DHT22;17114;52.314;8.910;2023-08-30T05:13:07;13.40;99.90
30308;DHT22;17114;52.314;8.910;2023-08-30T05:15:34;13.50;99.90
30308;DHT22;17114;52.314;8.910;2023-08-30T05:18:01;13.50;99.90
30308;DHT22;17114;52.314;8.910;2023-08-30T05:20:28;13.50;99.90
30308;DHT22;17114;52.314;8.910;2023-08-30T05:22:55;13.50;99.90
30308;DHT22;17114;52.314;8.910;2023-08-30T05:25:22;13.60;99.90
30308;DHT22;17114;52.314;8.910;2023-08-30T05:27:49;13.60;99.90
30308;DHT22;17114;52.314;8.910;2023-08-30T05:30:17;13.60;99.90
30308;DHT22;17114;52.314;8.910;2023-08-30T05:32:44;13.70;99.90
30308;DHT22;17114;52.314;8.910;2023-08-30T05:35:11;13.70;99.90
30308;DHT22;17114;52.314;8.910;2023-08-30T05:37:38;13.80;99.90
30308;DHT22;17114;52.314;8.910;2023-08-30T05:40:05;13.90;99.90
30308;DHT22;17114;52.314;8.910;2023-08-30T05:42:32;13.90;99.90
30308;DHT22;17114;52.314;8.910;2023-08-30T05:44:59;14.00;99.90
30308;DHT22;17114;52.314;8.910;2023-08-30T05:47:26;14.00;99.90
30308;DHT22;17114;52.314;8.910;2023-08-30T05:49:53;14.20;99.90
30308;DHT22;17114;52.314;8.910;2023-08-30T05:52:19;14.30;99.90
30308;DHT22;17114;52.314;8.910;2023-08-30T05:54:46;14.30;99.90
30308;DHT22;17114;52.314;8.910;2023-08-30T05:57:13;14.30;99.90
30308;DHT22;17114;52.314;8.910;2023-08-30T05:59:40;14.40;99.90
30308;DHT22;17114;52.314;8.910;2023-08-30T06:02:07;14.30;99.90
30308;DHT22;17114;52.314;8.910;2023-08-30T06:04:34;14.40;99.90
30308;DHT22;17114;52.314;8.910;2023-08-30T06:07:01;14.50;99.90
30308;DHT22;17114;52.314;8.910;2023-08-30T06:09:27;14.50;99.90
30308;DHT22;17114;52.314;8.910;2023-08-30T06:11:54;14.60;99.90
30308;DHT22;17114;52.314;8.910;2023-08-30T06:14:21;14.70;99.90
30308;DHT22;17114;52.314;8.910;2023-08-30T06:16:48;14.70;99.90
30308;DHT22;17114;52.314;8.910;2023-08-30T06:19:15;14.80;99.90
30308;DHT22;17114;52.314;8.910;2023-08-30T06:21:42;14.80;99.90
30308;DHT22;17114;52.314;8.910;2023-08-30T06:24:09;14.80;99.90
30308;DHT22;17114;52.314;8.910;2023-08-30T06:26:35;14.90;99.90
30308;DHT22;17114;52.314;8.910;2023-08-30T06:29:02;15.00;99.90
30308;DHT22;17114;52.314;8.910;2023-08-30T06:31:31;15.00;99.90
30308;DHT22;17114;52.314;8.910;2023-08-30T06:33:59;15.20;99.90
30308;DHT22;17114;52.314;8.910;2023-08-30T06:36:26;15.20;99.90
30308;DHT22;17114;52.314;8.910;2023-08-30T06:38:53;15.30;99.90
30308;DHT22;17114;52.314;8.910;2023-08-30T06:41:20;15.40;99.90
30308;DHT22;17114;52.314;8.910;2023-08-30T06:43:47;15.50;99.90
30308;DHT22;17114;52.314;8.910;2023-08-30T06:46:14;15.70;99.90
30308;DHT22;17114;52.314;8.910;2023-08-30T06:48:41;15.80;99.90
30308;DHT22;17114;52.314;8.910;2023-08-30T06:51:08;15.90;99.90
30308;DHT22;17114;52.314;8.910;2023-08-30T06:53:34;15.90;99.90
30308;DHT22;17114;52.314;8.910;2023-08-30T06:56:02;15.90;99.90
30308;DHT22;17114;52.314;8.910;2023-08-30T06:58:29;16.10;99.90
30308;DHT22;17114;52.314;8.910;2023-08-30T07:00:59;16.30;99.90
30308;DHT22;17114;52.314;8.910;2023-08-30T07:03:26;16.50;99.90
30308;DHT22;17114;52.314;8.910;2023-08-30T07:05:53;16.80;99.90
30308;DHT22;17114;52.314;8.910;2023-08-30T07:08:21;17.00;99.90
30308;DHT22;17114;52.314;8.910;2023-08-30T07:10:47;17.20;99.90
30308;DHT22;17114;52.314;8.910;2023-08-30T07:13:14;17.10;99.90
30308;DHT22;17114;52.314;8.910;2023-08-30T07:15:42;17.10;99.90
30308;DHT22;17114;52.314;8.910;2023-08-30T07:18:09;17.00;99.90
30308;DHT22;17114;52.314;8.910;2023-08-30T07:20:39;17.00;99.90
30308;DHT22;17114;52.314;8.910;2023-08-30T07:23:06;17.20;99.90
30308;DHT22;17114;52.314;8.910;2023-08-30T07:25:37;17.50;99.90
30308;DHT22;17114;52.314;8.910;2023-08-30T07:28:08;17.80;99.90
30308;DHT22;17114;52.314;8.910;2023-08-30T07:30:36;18.10;99.90
30308;DHT22;17114;52.314;8.910;2023-08-30T07:33:04;18.30;99.90
30308;DHT22;17114;52.314;8.910;2023-08-30T07:35:32;18.40;99.90
30308;DHT22;17114;52.314;8.910;2023-08-30T07:37:59;18.60;99.90
30308;DHT22;17114;52.314;8.910;2023-08-30T07:40:26;18.70;99.90
30308;DHT22;17114;52.314;8.910;2023-08-30T07:42:55;18.80;99.90
30308;DHT22;17114;52.314;8.910;2023-08-30T07:45:25;18.90;99.90
30308;DHT22;17114;52.314;8.910;2023-08-30T07:47:52;19.10;99.90
30308;DHT22;17114;52.314;8.910;2023-08-30T07:50:19;19.20;99.90
30308;DHT22;17114;52.314;8.910;2023-08-30T07:52:46;19.10;99.90
30308;DHT22;17114;52.314;8.910;2023-08-30T07:55:13;19.10;99.90
30308;DHT22;17114;52.314;8.910;2023-08-30T07:57:40;19.20;99.90
30308;DHT22;17114;52.314;8.910;2023-08-30T08:00:07;19.50;99.90
30308;DHT22;17114;52.314;8.910;2023-08-30T08:02:35;19.50;99.90
30308;DHT22;17114;52.314;8.910;2023-08-30T08:05:02;19.40;99.90
30308;DHT22;17114;52.314;8.910;2023-08-30T08:07:29;19.20;99.90
30308;DHT22;17114;52.314;8.910;2023-08-30T08:09:56;19.10;99.90
30308;DHT22;17114;52.314;8.910;2023-08-30T08:12:23;19.10;99.90
30308;DHT22;17114;52.314;8.910;2023-08-30T08:14:51;19.30;99.90
30308;DHT22;17114;52.314;8.910;2023-08-30T08:17:18;19.50;99.90
30308;DHT22;17114;52.314;8.910;2023-08-30T08:19:45;19.70;99.90
30308;DHT22;17114;52.314;8.910;2023-08-30T08:22:12;19.90;99.90
30308;DHT22;17114;52.314;8.910;2023-08-30T08:24:38;20.20;99.90
30308;DHT22;17114;52.314;8.910;2023-08-30T08:27:05;20.40;99.90
30308;DHT22;17114;52.314;8.910;2023-08-30T08:29:32;20.40;99.90
30308;DHT22;17114;52.314;8.910;2023-08-30T08:32:00;20.60;99.90
30308;DHT22;17114;52.314;8.910;2023-08-30T08:34:27;20.70;99.90
30308;DHT22;17114;52.314;8.910;2023-08-30T08:36:54;20.90;99.90
30308;DHT22;17114;52.314;8.910;2023-08-30T08:39:21;20.80;99.90
30308;DHT22;17114;52.314;8.910;2023-08-30T08:41:48;20.90;99.90
30308;DHT22;17114;52.314;8.910;2023-08-30T08:44:15;21.10;99.90
30308;DHT22;17114;52.314;8.910;2023-08-30T08:46:43;21.40;99.90
30308;DHT22;17114;52.314;8.910;2023-08-30T08:49:12;21.70;99.90
30308;DHT22;17114;52.314;8.910;2023-08-30T08:51:44;21.60;99.90
30308;DHT22;17114;52.314;8.910;2023-08-30T08:54:12;21.50;99.90
30308;DHT22;17114;52.314;8.910;2023-08-30T08:56:39;21.60;99.90
30308;DHT22;17114;52.314;8.910;2023-08-30T08:59:07;21.80;99.90
30308;DHT22;17114;52.314;8.910;2023-08-30T09:01:35;21.90;99.90
30308;DHT22;17114;52.314;8.910;2023-08-30T09:04:07;22.00;99.90
30308;DHT22;17114;52.314;8.910;2023-08-30T09:06:35;22.00;99.90
30308;DHT22;17114;52.314;8.910;2023-08-30T09:09:04;21.80;99.90
30308;DHT22;17114;52.314;8.910;2023-08-30T09:11:32;21.90;99.90
30308;DHT22;17114;52.314;8.910;2023-08-30T09:14:02;21.80;99.90
30308;DHT22;17114;52.314;8.910;2023-08-30T09:16:29;22.00;99.90
30308;DHT22;17114;52.314;8.910;2023-08-30T09:19:04;22.00;99.90
30308;DHT22;17114;52.314;8.910;2023-08-30T09:21:36;22.20;99.90
30308;DHT22;17114;52.314;8.910;2023-08-30T09:24:05;22.40;99.90
30308;DHT22;17114;52.314;8.910;2023-08-30T09:26:34;22.50;99.90
30308;DHT22;17114;52.314;8.910;2023-08-30T09:29:06;22.40;99.90
30308;DHT22;17114;52.314;8.910;2023-08-30T09:31:37;22.50;99.90
30308;DHT22;17114;52.314;8.910;2023-08-30T09:34:05;22.70;99.90
30308;DHT22;17114;52.314;8.910;2023-08-30T09:36:40;22.50;99.90
30308;DHT22;17114;52.314;8.910;2023-08-30T09:39:11;22.50;99.90
30308;DHT22;17114;52.314;8.910;2023-08-30T09:41:43;22.70;99.90
30308;DHT22;17114;52.314;8.910;2023-08-30T09:44:15;22.90;99.90
30308;DHT22;17114;52.314;8.910;2023-08-30T09:49:25;22.80;99.90
30308;DHT22;17114;52.314;8.910;2023-08-30T09:51:54;22.80;99.90
30308;DHT22;17114;52.314;8.910;2023-08-30T09:54:26;23.10;99.90
30308;DHT22;17114;52.314;8.910;2023-08-30T09:57:05;23.20;99.90
30308;DHT22;17114;52.314;8.910;2023-08-30T09:59:33;23.50;99.90
30308;DHT22;17114;52.314;8.910;2023-08-30T10:02:00;24.00;99.90
30308;DHT22;17114;52.314;8.910;2023-08-30T10:04:28;23.70;99.90
30308;DHT22;17114;52.314;8.910;2023-08-30T10:06:57;23.00;99.90
30308;DHT22;17114;52.314;8.910;2023-08-30T10:09:25;22.70;99.90
30308;DHT22;17114;52.314;8.910;2023-08-30T10:11:52;22.50;99.90
30308;DHT22;17114;52.314;8.910;2023-08-30T10:14:19;22.50;99.90
30308;DHT22;17114;52.314;8.910;2023-08-30T10:16:48;22.80;99.90
30308;DHT22;17114;52.314;8.910;2023-08-30T10:19:28;23.10;99.90
30308;DHT22;17114;52.314;8.910;2023-08-30T10:22:03;23.00;99.90
30308;DHT22;17114;52.314;8.910;2023-08-30T10:24:41;23.20;99.90
30308;DHT22;17114;52.314;8.910;2023-08-30T10:27:31;23.20;99.90
30308;DHT22;17114;52.314;8.910;2023-08-30T10:30:00;23.50;99.90
30308;DHT22;17114;52.314;8.910;2023-08-30T10:32:28;23.70;99.90
30308;DHT22;17114;52.314;8.910;2023-08-30T10:34:55;24.00;99.90
30308;DHT22;17114;52.314;8.910;2023-08-30T10:37:26;23.90;99.90
30308;DHT22;17114;52.314;8.910;2023-08-30T10:39:59;23.80;99.90
30308;DHT22;17114;52.314;8.910;2023-08-30T10:42:27;23.50;99.90
30308;DHT22;17114;52.314;8.910;2023-08-30T10:45:00;22.90;99.90
30308;DHT22;17114;52.314;8.910;2023-08-30T10:47:32;22.40;99.90
30308;DHT22;17114;52.314;8.910;2023-08-30T10:50:00;21.90;99.90
30308;DHT22;17114;52.314;8.910;2023-08-30T10:52:31;21.50;99.90
30308;DHT22;17114;52.314;8.910;2023-08-30T10:55:15;21.10;99.90
30308;DHT22;17114;52.314;8.910;2023-08-30T10:57:44;21.00;99.90
30308;DHT22;17114;52.314;8.910;2023-08-30T11:00:18;21.00;99.90
30308;DHT22;17114;52.314;8.910;2023-08-30T11:02:49;21.00;99.90
30308;DHT22;17114;52.314;8.910;2023-08-30T11:05:17;20.90;99.90
30308;DHT22;17114;52.314;8.910;2023-08-30T11:07:45;20.80;99.90
30308;DHT22;17114;52.314;8.910;2023-08-30T11:10:14;20.70;99.90
30308;DHT22;17114;52.314;8.910;2023-08-30T11:12:41;20.80;99.90
30308;DHT22;17114;52.314;8.910;2023-08-30T11:15:10;20.90;99.90
30308;DHT22;17114;52.314;8.910;2023-08-30T11:17:37;21.20;99.90
30308;DHT22;17114;52.314;8.910;2023-08-30T11:20:09;21.40;99.90
30308;DHT22;17114;52.314;8.910;2023-08-30T11:22:41;21.40;99.90
30308;DHT22;17114;52.314;8.910;2023-08-30T11:25:09;21.90;99.90
30308;DHT22;17114;52.314;8.910;2023-08-30T11:27:37;22.20;99.90
30308;DHT22;17114;52.314;8.910;2023-08-30T11:30:06;22.20;99.90
30308;DHT22;17114;52.314;8.910;2023-08-30T11:32:39;22.10;99.90
30308;DHT22;17114;52.314;8.910;2023-08-30T11:35:07;22.10;99.90
30308;DHT22;17114;52.314;8.910;2023-08-30T11:37:34;22.00;99.90
30308;DHT22;17114;52.314;8.910;2023-08-30T11:40:03;21.90;99.90
30308;DHT22;17114;52.314;8.910;2023-08-30T11:42:31;21.70;99.90
30308;DHT22;17114;52.314;8.910;2023-08-30T11:44:59;21.60;99.90
30308;DHT22;17114;52.314;8.910;2023-08-30T11:47:27;21.10;99.90
30308;DHT22;17114;52.314;8.910;2023-08-30T11:49:55;20.80;99.90
30308;DHT22;17114;52.314;8.910;2023-08-30T11:52:23;20.70;99.90
30308;DHT22;17114;52.314;8.910;2023-08-30T11:54:51;20.60;99.90
30308;DHT22;17114;52.314;8.910;2023-08-30T11:57:19;20.50;99.90
30308;DHT22;17114;52.314;8.910;2023-08-30T11:59:47;20.30;99.90
30308;DHT22;17114;52.314;8.910;2023-08-30T12:02:16;20.30;99.90
30308;DHT22;17114;52.314;8.910;2023-08-30T12:04:45;20.30;99.90
30308;DHT22;17114;52.314;8.910;2023-08-30T12:07:23;20.30;99.90
30308;DHT22;17114;52.314;8.910;2023-08-30T12:09:51;20.40;99.90
30308;DHT22;17114;52.314;8.910;2023-08-30T12:12:18;20.50;99.90
30308;DHT22;17114;52.314;8.910;2023-08-30T12:14:55;20.60;99.90
30308;DHT22;17114;52.314;8.910;2023-08-30T12:17:23;20.70;99.90
30308;DHT22;17114;52.314;8.910;2023-08-30T12:19:57;20.80;99.90
30308;DHT22;17114;52.314;8.910;2023-08-30T12:22:34;20.70;99.90
30308;DHT22;17114;52.314;8.910;2023-08-30T12:25:01;20.70;99.90
30308;DHT22;17114;52.314;8.910;2023-08-30T12:27:29;20.80;99.90
30308;DHT22;17114;52.314;8.910;2023-08-30T12:29:56;20.80;99.90
30308;DHT22;17114;52.314;8.910;2023-08-30T12:32:23;20.80;99.90
30308;DHT22;17114;52.314;8.910;2023-08-30T12:34:50;20.70;99.90
30308;DHT22;17114;52.314;8.910;2023-08-30T12:37:17;20.70;99.90
30308;DHT22;17114;52.314;8.910;2023-08-30T12:39:45;20.60;99.90
30308;DHT22;17114;52.314;8.910;2023-08-30T12:42:12;20.60;99.90
30308;DHT22;17114;52.314;8.910;2023-08-30T12:44:39;20.60;99.90
30308;DHT22;17114;52.314;8.910;2023-08-30T12:47:06;20.50;99.90
30308;DHT22;17114;52.314;8.910;2023-08-30T12:49:33;20.50;99.90
30308;DHT22;17114;52.314;8.910;2023-08-30T12:52:00;20.50;99.90
30308;DHT22;17114;52.314;8.910;2023-08-30T12:54:27;20.40;99.90
30308;DHT22;17114;52.314;8.910;2023-08-30T12:56:54;20.30;99.90
30308;DHT22;17114;52.314;8.910;2023-08-30T12:59:21;20.30;99.90
30308;DHT22;17114;52.314;8.910;2023-08-30T13:01:48;20.20;99.90
30308;DHT22;17114;52.314;8.910;2023-08-30T13:04:15;20.20;99.90
30308;DHT22;17114;52.314;8.910;2023-08-30T13:06:42;20.20;99.90
30308;DHT22;17114;52.314;8.910;2023-08-30T13:09:09;20.20;99.90
30308;DHT22;17114;52.314;8.910;2023-08-30T13:11:36;20.20;99.90
30308;DHT22;17114;52.314;8.910;2023-08-30T13:14:03;20.20;99.90
30308;DHT22;17114;52.314;8.910;2023-08-30T13:16:31;20.10;99.90
30308;DHT22;17114;52.314;8.910;2023-08-30T13:18:58;20.00;99.90
30308;DHT22;17114;52.314;8.910;2023-08-30T13:21:25;20.00;99.90
30308;DHT22;17114;52.314;8.910;2023-08-30T13:24:06;20.00;99.90
30308;DHT22;17114;52.314;8.910;2023-08-30T13:26:33;20.10;99.90
30308;DHT22;17114;52.314;8.910;2023-08-30T13:29:01;20.00;99.90
30308;DHT22;17114;52.314;8.910;2023-08-30T13:31:29;20.00;99.90
30308;DHT22;17114;52.314;8.910;2023-08-30T13:33:56;20.00;99.90
30308;DHT22;17114;52.314;8.910;2023-08-30T13:36:23;20.00;99.90
30308;DHT22;17114;52.314;8.910;2023-08-30T13:38:51;19.90;99.90
30308;DHT22;17114;52.314;8.910;2023-08-30T13:41:19;19.70;99.90
30308;DHT22;17114;52.314;8.910;2023-08-30T13:43:46;19.60;99.90
30308;DHT22;17114;52.314;8.910;2023-08-30T13:46:13;19.40;99.90
30308;DHT22;17114;52.314;8.910;2023-08-30T13:48:40;19.20;99.90
30308;DHT22;17114;52.314;8.910;2023-08-30T13:51:08;19.00;99.90
30308;DHT22;17114;52.314;8.910;2023-08-30T13:53:35;18.90;99.90
30308;DHT22;17114;52.314;8.910;2023-08-30T13:56:01;18.80;99.90
30308;DHT22;17114;52.314;8.910;2023-08-30T13:58:28;18.70;99.90
30308;DHT22;17114;52.314;8.910;2023-08-30T14:00:55;18.50;99.90
30308;DHT22;17114;52.314;8.910;2023-08-30T14:03:22;18.30;99.90
30308;DHT22;17114;52.314;8.910;2023-08-30T14:05:49;18.00;99.90
30308;DHT22;17114;52.314;8.910;2023-08-30T14:08:16;17.80;99.90
30308;DHT22;17114;52.314;8.910;2023-08-30T14:10:43;17.70;99.90
30308;DHT22;17114;52.314;8.910;2023-08-30T14:13:10;17.70;99.90
30308;DHT22;17114;52.314;8.910;2023-08-30T14:15:37;17.60;99.90
30308;DHT22;17114;52.314;8.910;2023-08-30T14:18:04;17.50;99.90
30308;DHT22;17114;52.314;8.910;2023-08-30T14:20:31;17.40;99.90
30308;DHT22;17114;52.314;8.910;2023-08-30T14:22:58;17.30;99.90
30308;DHT22;17114;52.314;8.910;2023-08-30T14:25:25;17.20;99.90
30308;DHT22;17114;52.314;8.910;2023-08-30T14:27:52;17.20;99.90
30308;DHT22;17114;52.314;8.910;2023-08-30T14:30:19;17.20;99.90
30308;DHT22;17114;52.314;8.910;2023-08-30T14:32:47;17.10;99.90
30308;DHT22;17114;52.314;8.910;2023-08-30T14:35:13;17.00;99.90
30308;DHT22;17114;52.314;8.910;2023-08-30T14:37:40;16.90;99.90
30308;DHT22;17114;52.314;8.910;2023-08-30T14:40:08;16.80;99.90
30308;DHT22;17114;52.314;8.910;2023-08-30T14:42:35;16.60;99.90
30308;DHT22;17114;52.314;8.910;2023-08-30T14:45:02;16.50;99.90
30308;DHT22;17114;52.314;8.910;2023-08-30T14:47:30;16.30;99.90
30308;DHT22;17114;52.314;8.910;2023-08-30T14:49:57;16.30;99.90
30308;DHT22;17114;52.314;8.910;2023-08-30T14:52:24;16.20;99.90
30308;DHT22;17114;52.314;8.910;2023-08-30T14:54:51;16.20;99.90
30308;DHT22;17114;52.314;8.910;2023-08-30T14:57:18;16.10;99.90
30308;DHT22;17114;52.314;8.910;2023-08-30T14:59:46;16.00;99.90
30308;DHT22;17114;52.314;8.910;2023-08-30T15:02:14;16.00;99.90
30308;DHT22;17114;52.314;8.910;2023-08-30T15:04:41;15.90;99.90
30308;DHT22;17114;52.314;8.910;2023-08-30T15:07:08;15.90;99.90
30308;DHT22;17114;52.314;8.910;2023-08-30T15:09:34;15.90;99.90
30308;DHT22;17114;52.314;8.910;2023-08-30T15:12:01;15.90;99.90
30308;DHT22;17114;52.314;8.910;2023-08-30T15:14:28;15.90;99.90
30308;DHT22;17114;52.314;8.910;2023-08-30T15:16:55;15.90;99.90
30308;DHT22;17114;52.314;8.910;2023-08-30T15:19:22;15.90;99.90
30308;DHT22;17114;52.314;8.910;2023-08-30T15:21:48;15.90;99.90
30308;DHT22;17114;52.314;8.910;2023-08-30T15:24:15;15.90;99.90
30308;DHT22;17114;52.314;8.910;2023-08-30T15:26:43;15.90;99.90
30308;DHT22;17114;52.314;8.910;2023-08-30T15:29:10;15.80;99.90
30308;DHT22;17114;52.314;8.910;2023-08-30T15:31:37;15.80;99.90
30308;DHT22;17114;52.314;8.910;2023-08-30T15:34:04;15.80;99.90
30308;DHT22;17114;52.314;8.910;2023-08-30T15:36:31;15.80;99.90
30308;DHT22;17114;52.314;8.910;2023-08-30T15:38:58;15.80;99.90
30308;DHT22;17114;52.314;8.910;2023-08-30T15:41:26;15.80;99.90